createdAt,value
2023-05-21T00:00:20.877Z,0.00
2023-05-21T00:01:20.869Z,0.00
2023-05-21T00:02:20.900Z,0.00
2023-05-21T00:03:20.948Z,0.00
2023-05-21T00:04:20.883Z,0.00
2023-05-21T00:05:20.892Z,0.00
2023-05-21T00:06:21.001Z,0.00
2023-05-21T00:07:20.882Z,0.00
2023-05-21T00:08:20.886Z,0.00
2023-05-21T00:09:20.875Z,0.00
2023-05-21T00:10:20.888Z,0.00
2023-05-21T00:11:20.857Z,0.00
2023-05-21T00:12:20.847Z,0.00
2023-05-21T00:13:20.846Z,0.00
2023-05-21T00:14:20.866Z,0.00
2023-05-21T00:15:20.860Z,0.00
2023-05-21T00:16:21.007Z,0.00
2023-05-21T00:17:20.851Z,0.00
2023-05-21T00:18:20.834Z,0.00
2023-05-21T00:19:20.928Z,0.00
2023-05-21T00:20:20.849Z,0.00
2023-05-21T00:21:20.831Z,0.00
2023-05-21T00:22:20.851Z,0.00
2023-05-21T00:23:20.822Z,0.00
2023-05-21T00:24:20.836Z,0.00
2023-05-21T00:25:20.856Z,0.00
2023-05-21T00:26:20.849Z,0.00
2023-05-21T00:27:20.833Z,0.00
2023-05-21T00:28:20.838Z,0.00
2023-05-21T00:29:20.807Z,0.00
2023-05-21T00:30:20.828Z,0.00
2023-05-21T00:31:20.850Z,0.00
2023-05-21T00:32:20.818Z,0.00
2023-05-21T00:33:20.801Z,0.00
2023-05-21T00:34:20.815Z,0.00
2023-05-21T00:35:20.794Z,0.00
2023-05-21T00:36:20.803Z,0.00
2023-05-21T00:37:20.814Z,0.00
2023-05-21T00:38:20.813Z,0.00
2023-05-21T00:39:20.787Z,0.00
2023-05-21T00:40:20.851Z,0.00
2023-05-21T00:41:20.793Z,0.00
2023-05-21T00:42:20.803Z,0.00
2023-05-21T00:43:20.791Z,0.00
2023-05-21T00:44:20.805Z,0.00
2023-05-21T00:45:20.778Z,0.00
2023-05-21T00:46:20.805Z,0.00
2023-05-21T00:47:20.790Z,0.00
2023-05-21T00:48:20.784Z,0.00
2023-05-21T00:49:20.775Z,0.00
2023-05-21T00:50:20.767Z,0.00
2023-05-21T00:51:20.771Z,0.00
2023-05-21T00:52:20.757Z,0.00
2023-05-21T00:53:20.768Z,0.00
2023-05-21T00:54:20.756Z,0.00
2023-05-21T00:55:20.775Z,0.00
2023-05-21T00:56:20.755Z,0.00
2023-05-21T00:57:20.758Z,0.00
2023-05-21T00:58:20.768Z,0.00
2023-05-21T00:59:20.757Z,0.00
2023-05-21T01:00:20.750Z,0.00
2023-05-21T01:01:20.755Z,0.00
2023-05-21T01:02:20.849Z,0.00
2023-05-21T01:03:21.077Z,0.00
2023-05-21T01:04:20.740Z,0.00
2023-05-21T01:05:20.736Z,0.00
2023-05-21T01:06:20.752Z,0.00
2023-05-21T01:07:20.758Z,0.00
2023-05-21T01:08:20.728Z,0.00
2023-05-21T01:09:20.730Z,0.00
2023-05-21T01:10:20.730Z,0.00
2023-05-21T01:11:20.715Z,0.00
2023-05-21T01:12:20.729Z,0.00
2023-05-21T01:13:20.713Z,0.00
2023-05-21T01:14:20.755Z,0.00
2023-05-21T01:15:20.704Z,0.00
2023-05-21T01:16:20.750Z,0.00
2023-05-21T01:17:20.740Z,0.00
2023-05-21T01:18:20.723Z,0.00
2023-05-21T01:19:20.764Z,0.00
2023-05-21T01:20:20.718Z,0.00
2023-05-21T01:21:20.724Z,0.00
2023-05-21T01:22:20.709Z,0.00
2023-05-21T01:23:20.737Z,0.00
2023-05-21T01:24:20.702Z,0.00
2023-05-21T01:25:20.706Z,0.00
2023-05-21T01:26:20.687Z,0.00
2023-05-21T01:27:20.696Z,0.00
2023-05-21T01:28:20.698Z,0.00
2023-05-21T01:29:20.695Z,0.00
2023-05-21T01:30:20.692Z,0.00
2023-05-21T01:31:20.704Z,0.00
2023-05-21T01:32:20.692Z,0.00
2023-05-21T01:33:20.849Z,0.00
2023-05-21T01:34:20.688Z,0.00
2023-05-21T01:35:20.686Z,0.00
2023-05-21T01:36:20.669Z,0.00
2023-05-21T01:37:20.671Z,0.00
2023-05-21T01:38:20.675Z,0.00
2023-05-21T01:39:20.665Z,0.00
2023-05-21T01:40:20.702Z,0.00
2023-05-21T01:41:20.667Z,0.00
2023-05-21T01:42:20.655Z,0.00
2023-05-21T01:43:20.646Z,0.00
2023-05-21T01:44:20.651Z,0.00
2023-05-21T01:45:20.647Z,0.00
2023-05-21T01:46:20.824Z,0.00
2023-05-21T01:47:20.658Z,0.00
2023-05-21T01:48:20.637Z,0.00
2023-05-21T01:49:20.649Z,0.00
2023-05-21T01:50:20.652Z,0.00
2023-05-21T01:51:20.643Z,0.00
2023-05-21T01:52:20.640Z,0.00
2023-05-21T01:53:20.635Z,0.00
2023-05-21T01:54:20.649Z,0.00
2023-05-21T01:55:20.635Z,0.00
2023-05-21T01:56:20.619Z,0.00
2023-05-21T01:57:20.617Z,0.00
2023-05-21T01:58:20.636Z,0.00
2023-05-21T01:59:20.613Z,0.00
2023-05-21T02:00:20.635Z,0.00
2023-05-21T02:01:20.639Z,0.00
2023-05-21T02:02:20.658Z,0.00
2023-05-21T02:03:20.754Z,0.00
2023-05-21T02:04:20.625Z,0.00
2023-05-21T02:05:20.623Z,0.00
2023-05-21T02:06:20.626Z,0.00
2023-05-21T02:07:20.607Z,0.00
2023-05-21T02:08:20.632Z,0.00
2023-05-21T02:09:20.603Z,0.00
2023-05-21T02:10:20.594Z,0.00
2023-05-21T02:11:20.605Z,0.00
2023-05-21T02:12:20.586Z,0.00
2023-05-21T02:13:21.150Z,0.00
2023-05-21T02:14:20.600Z,0.00
2023-05-21T02:15:20.626Z,0.00
2023-05-21T02:16:20.624Z,0.00
2023-05-21T02:17:20.579Z,0.00
2023-05-21T02:18:20.601Z,0.00
2023-05-21T02:19:20.667Z,0.00
2023-05-21T02:20:20.599Z,0.00
2023-05-21T02:21:20.601Z,0.00
2023-05-21T02:22:20.588Z,0.00
2023-05-21T02:23:20.580Z,0.00
2023-05-21T02:24:20.571Z,0.00
2023-05-21T02:25:20.570Z,0.00
2023-05-21T02:26:20.577Z,0.00
2023-05-21T02:27:20.583Z,0.00
2023-05-21T02:28:20.567Z,0.00
2023-05-21T02:29:20.582Z,0.00
2023-05-21T02:30:20.576Z,0.00
2023-05-21T02:31:20.566Z,0.00
2023-05-21T02:32:20.549Z,0.00
2023-05-21T02:33:20.553Z,0.00
2023-05-21T02:34:20.855Z,0.00
2023-05-21T02:35:20.539Z,0.00
2023-05-21T02:36:20.555Z,0.00
2023-05-21T02:37:20.538Z,0.00
2023-05-21T02:38:20.545Z,0.00
2023-05-21T02:39:20.534Z,0.00
2023-05-21T02:40:20.531Z,0.00
2023-05-21T02:41:20.538Z,0.00
2023-05-21T02:42:20.581Z,0.00
2023-05-21T02:43:20.552Z,0.00
2023-05-21T02:44:20.525Z,0.00
2023-05-21T02:45:20.546Z,0.00
2023-05-21T02:46:20.584Z,0.00
2023-05-21T02:47:20.527Z,0.00
2023-05-21T02:48:20.522Z,0.00
2023-05-21T02:49:20.554Z,0.00
2023-05-21T02:50:20.565Z,0.00
2023-05-21T02:51:20.515Z,0.00
2023-05-21T02:52:20.510Z,0.00
2023-05-21T02:53:20.517Z,0.00
2023-05-21T02:54:20.536Z,0.00
2023-05-21T02:55:20.497Z,0.00
2023-05-21T02:56:20.489Z,0.00
2023-05-21T02:57:20.508Z,0.00
2023-05-21T02:58:20.504Z,0.00
2023-05-21T02:59:20.517Z,0.00
2023-05-21T03:00:20.514Z,0.00
2023-05-21T03:01:20.508Z,0.00
2023-05-21T03:02:20.576Z,0.00
2023-05-21T03:03:20.717Z,0.00
2023-05-21T03:04:20.491Z,0.00
2023-05-21T03:05:20.480Z,0.00
2023-05-21T03:06:20.513Z,0.00
2023-05-21T03:07:20.479Z,0.00
2023-05-21T03:08:20.469Z,0.00
2023-05-21T03:09:20.477Z,0.00
2023-05-21T03:10:20.488Z,0.00
2023-05-21T03:11:20.467Z,0.00
2023-05-21T03:12:20.475Z,0.00
2023-05-21T03:13:20.496Z,0.00
2023-05-21T03:14:20.453Z,0.00
2023-05-21T03:15:20.464Z,0.00
2023-05-21T03:16:20.504Z,0.00
2023-05-21T03:17:20.468Z,0.00
2023-05-21T03:18:20.473Z,0.00
2023-05-21T03:19:20.496Z,0.00
2023-05-21T03:20:20.436Z,0.00
2023-05-21T03:21:20.431Z,0.00
2023-05-21T03:22:20.463Z,0.00
2023-05-21T03:23:20.452Z,0.00
2023-05-21T03:24:20.428Z,0.00
2023-05-21T03:25:20.450Z,0.00
2023-05-21T03:26:20.423Z,0.00
2023-05-21T03:27:20.446Z,0.00
2023-05-21T03:28:20.432Z,0.00
2023-05-21T03:29:20.456Z,0.00
2023-05-21T03:30:20.425Z,0.00
2023-05-21T03:31:20.467Z,0.00
2023-05-21T03:32:20.495Z,0.00
2023-05-21T03:33:20.416Z,0.00
2023-05-21T03:34:20.414Z,0.00
2023-05-21T03:35:20.407Z,0.00
2023-05-21T03:36:20.403Z,0.00
2023-05-21T03:37:20.406Z,0.00
2023-05-21T03:38:20.429Z,0.00
2023-05-21T03:39:20.404Z,0.00
2023-05-21T03:40:20.393Z,0.00
2023-05-21T03:41:20.396Z,0.00
2023-05-21T03:42:20.434Z,0.00
2023-05-21T03:43:20.396Z,0.00
2023-05-21T03:44:20.391Z,0.00
2023-05-21T03:45:20.416Z,0.00
2023-05-21T03:46:20.400Z,0.00
2023-05-21T03:47:20.420Z,0.00
2023-05-21T03:48:20.400Z,0.00
2023-05-21T03:49:20.389Z,0.00
2023-05-21T03:50:20.370Z,0.00
2023-05-21T03:51:20.378Z,0.00
2023-05-21T03:52:20.378Z,0.00
2023-05-21T03:53:20.366Z,0.00
2023-05-21T03:54:20.410Z,0.00
2023-05-21T03:55:20.388Z,0.00
2023-05-21T03:56:20.402Z,0.00
2023-05-21T03:57:20.381Z,0.00
2023-05-21T03:58:20.368Z,0.00
2023-05-21T03:59:20.348Z,0.00
2023-05-21T04:00:20.392Z,0.00
2023-05-21T04:01:20.408Z,0.00
2023-05-21T04:02:20.420Z,0.00
2023-05-21T04:03:20.409Z,0.00
2023-05-21T04:04:20.358Z,0.00
2023-05-21T04:05:20.349Z,0.00
2023-05-21T04:06:20.357Z,0.00
2023-05-21T04:07:20.368Z,0.00
2023-05-21T04:08:20.370Z,0.00
2023-05-21T04:09:20.330Z,0.00
2023-05-21T04:10:20.357Z,0.00
2023-05-21T04:11:20.347Z,0.00
2023-05-21T04:12:20.456Z,0.00
2023-05-21T04:13:20.326Z,0.00
2023-05-21T04:14:20.321Z,0.00
2023-05-21T04:15:20.328Z,0.00
2023-05-21T04:16:20.432Z,0.00
2023-05-21T04:17:20.325Z,0.00
2023-05-21T04:18:20.324Z,0.00
2023-05-21T04:19:20.363Z,0.00
2023-05-21T04:20:20.306Z,0.00
2023-05-21T04:21:20.309Z,0.00
2023-05-21T04:22:20.293Z,0.00
2023-05-21T04:23:20.312Z,0.00
2023-05-21T04:24:20.311Z,0.00
2023-05-21T04:25:20.295Z,0.00
2023-05-21T04:26:20.320Z,0.00
2023-05-21T04:27:20.304Z,0.00
2023-05-21T04:28:20.456Z,0.00
2023-05-21T04:29:20.299Z,0.00
2023-05-21T04:30:20.296Z,0.00
2023-05-21T04:31:20.310Z,0.00
2023-05-21T04:32:20.370Z,0.00
2023-05-21T04:33:20.394Z,0.00
2023-05-21T04:34:20.322Z,0.00
2023-05-21T04:35:20.309Z,0.00
2023-05-21T04:36:20.286Z,0.00
2023-05-21T04:37:20.268Z,0.00
2023-05-21T04:38:20.315Z,0.00
2023-05-21T04:39:20.285Z,0.00
2023-05-21T04:40:20.267Z,0.00
2023-05-21T04:41:20.268Z,0.00
2023-05-21T04:42:20.279Z,0.00
2023-05-21T04:43:20.263Z,0.00
2023-05-21T04:44:20.254Z,0.00
2023-05-21T04:45:20.247Z,0.00
2023-05-21T04:46:20.318Z,0.00
2023-05-21T04:47:20.349Z,0.00
2023-05-21T04:48:20.261Z,0.00
2023-05-21T04:49:20.257Z,0.00
2023-05-21T04:50:20.234Z,0.00
2023-05-21T04:51:20.259Z,0.00
2023-05-21T04:52:20.250Z,0.00
2023-05-21T04:53:20.226Z,0.00
2023-05-21T04:54:20.244Z,0.00
2023-05-21T04:55:20.244Z,0.00
2023-05-21T04:56:20.249Z,0.00
2023-05-21T04:57:20.275Z,0.00
2023-05-21T04:58:20.356Z,0.00
2023-05-21T04:59:20.220Z,0.00
2023-05-21T05:00:20.210Z,0.00
2023-05-21T05:01:20.364Z,0.00
2023-05-21T05:02:20.205Z,0.00
2023-05-21T05:03:20.347Z,0.00
2023-05-21T05:04:20.211Z,0.00
2023-05-21T05:05:20.224Z,0.00
2023-05-21T05:06:20.213Z,0.00
2023-05-21T05:07:20.220Z,0.00
2023-05-21T05:08:20.203Z,0.00
2023-05-21T05:09:20.208Z,0.00
2023-05-21T05:10:20.199Z,0.00
2023-05-21T05:11:20.192Z,0.00
2023-05-21T05:12:20.199Z,0.00
2023-05-21T05:13:20.201Z,0.00
2023-05-21T05:14:20.216Z,0.00
2023-05-21T05:15:20.186Z,0.00
2023-05-21T05:16:20.218Z,0.00
2023-05-21T05:17:20.176Z,0.00
2023-05-21T05:18:20.178Z,0.00
2023-05-21T05:19:20.265Z,0.00
2023-05-21T05:20:20.187Z,0.00
2023-05-21T05:21:20.196Z,0.00
2023-05-21T05:22:20.189Z,0.00
2023-05-21T05:23:20.160Z,0.00
2023-05-21T05:24:20.171Z,0.00
2023-05-21T05:25:20.167Z,0.00
2023-05-21T05:26:20.168Z,0.00
2023-05-21T05:27:20.150Z,0.00
2023-05-21T05:28:20.155Z,0.00
2023-05-21T05:29:20.168Z,0.00
2023-05-21T05:30:20.229Z,0.00
2023-05-21T05:31:20.272Z,0.00
2023-05-21T05:32:20.153Z,0.00
2023-05-21T05:33:20.262Z,0.00
2023-05-21T05:34:20.215Z,0.00
2023-05-21T05:35:20.154Z,0.00
2023-05-21T05:36:20.130Z,0.00
2023-05-21T05:37:20.156Z,0.00
2023-05-21T05:38:20.132Z,0.00
2023-05-21T05:39:20.157Z,0.00
2023-05-21T05:40:20.134Z,0.00
2023-05-21T05:41:20.146Z,0.00
2023-05-21T05:42:20.129Z,0.00
2023-05-21T05:43:20.139Z,0.00
2023-05-21T05:44:20.109Z,0.00
2023-05-21T05:45:20.123Z,0.00
2023-05-21T05:46:20.190Z,0.00
2023-05-21T05:47:20.117Z,0.00
2023-05-21T05:48:20.128Z,0.00
2023-05-21T05:49:20.124Z,0.00
2023-05-21T05:50:20.107Z,0.00
2023-05-21T05:51:20.104Z,0.00
2023-05-21T05:52:20.107Z,0.00
2023-05-21T05:53:20.108Z,0.00
2023-05-21T05:54:20.121Z,0.00
2023-05-21T05:55:20.129Z,0.00
2023-05-21T05:56:20.088Z,0.00
2023-05-21T05:57:20.084Z,0.00
2023-05-21T05:58:20.105Z,0.00
2023-05-21T05:59:20.104Z,0.00
2023-05-21T06:00:20.077Z,0.00
2023-05-21T06:01:20.096Z,0.00
2023-05-21T06:02:20.159Z,5.63
2023-05-21T06:03:20.328Z,5.63
2023-05-21T06:04:20.097Z,5.63
2023-05-21T06:05:20.088Z,5.63
2023-05-21T06:06:20.250Z,5.63
2023-05-21T06:07:20.064Z,5.63
2023-05-21T06:08:20.067Z,5.63
2023-05-21T06:09:20.053Z,5.63
2023-05-21T06:10:20.067Z,5.63
2023-05-21T06:11:20.072Z,5.63
2023-05-21T06:12:20.060Z,5.63
2023-05-21T06:13:20.064Z,5.63
2023-05-21T06:14:20.046Z,5.63
2023-05-21T06:15:20.049Z,5.63
2023-05-21T06:16:20.191Z,5.63
2023-05-21T06:17:20.057Z,5.63
2023-05-21T06:18:20.061Z,5.63
2023-05-21T06:19:20.152Z,5.63
2023-05-21T06:20:20.046Z,5.63
2023-05-21T06:21:20.051Z,5.63
2023-05-21T06:22:20.046Z,5.63
2023-05-21T06:23:20.045Z,5.63
2023-05-21T06:24:20.023Z,5.63
2023-05-21T06:25:20.053Z,5.63
2023-05-21T06:26:20.024Z,5.63
2023-05-21T06:27:20.050Z,5.63
2023-05-21T06:28:20.010Z,5.63
2023-05-21T06:29:20.023Z,11.25
2023-05-21T06:30:20.020Z,5.63
2023-05-21T06:31:20.035Z,5.63
2023-05-21T06:32:20.050Z,5.63
2023-05-21T06:33:20.137Z,5.63
2023-05-21T06:34:20.034Z,11.25
2023-05-21T06:35:20.006Z,11.25
2023-05-21T06:36:20.032Z,11.25
2023-05-21T06:37:20.020Z,11.25
2023-05-21T06:38:19.993Z,11.25
2023-05-21T06:39:20.000Z,11.25
2023-05-21T06:40:20.005Z,11.25
2023-05-21T06:41:19.986Z,11.25
2023-05-21T06:42:19.986Z,11.25
2023-05-21T06:43:20.002Z,11.25
2023-05-21T06:44:20.009Z,11.25
2023-05-21T06:45:19.991Z,16.88
2023-05-21T06:46:20.049Z,16.88
2023-05-21T06:47:19.979Z,16.88
2023-05-21T06:48:20.007Z,16.88
2023-05-21T06:49:19.979Z,16.88
2023-05-21T06:50:20.016Z,16.88
2023-05-21T06:51:19.985Z,22.50
2023-05-21T06:52:19.963Z,22.50
2023-05-21T06:53:19.958Z,28.13
2023-05-21T06:54:19.956Z,33.75
2023-05-21T06:55:19.965Z,45.00
2023-05-21T06:56:19.976Z,56.25
2023-05-21T06:57:19.960Z,78.75
2023-05-21T06:58:19.967Z,101.25
2023-05-21T06:59:19.958Z,101.25
2023-05-21T07:00:19.970Z,95.63
2023-05-21T07:01:20.022Z,90.00
2023-05-21T07:02:20.074Z,90.00
2023-05-21T07:03:20.167Z,101.25
2023-05-21T07:04:19.957Z,112.50
2023-05-21T07:05:19.944Z,112.50
2023-05-21T07:06:20.036Z,101.25
2023-05-21T07:07:19.960Z,84.38
2023-05-21T07:08:19.928Z,73.13
2023-05-21T07:09:19.946Z,67.50
2023-05-21T07:10:19.933Z,67.50
2023-05-21T07:11:19.938Z,56.25
2023-05-21T07:12:19.932Z,50.63
2023-05-21T07:13:19.980Z,33.75
2023-05-21T07:14:19.950Z,45.00
2023-05-21T07:15:19.943Z,45.00
2023-05-21T07:16:19.943Z,39.38
2023-05-21T07:17:19.913Z,73.13
2023-05-21T07:18:19.913Z,45.00
2023-05-21T07:19:20.103Z,39.38
2023-05-21T07:20:19.923Z,61.88
2023-05-21T07:21:19.916Z,61.88
2023-05-21T07:22:19.932Z,67.50
2023-05-21T07:23:19.921Z,61.88
2023-05-21T07:24:19.900Z,56.25
2023-05-21T07:25:19.917Z,45.00
2023-05-21T07:26:19.907Z,39.38
2023-05-21T07:27:25.932Z,33.75
2023-05-21T07:28:19.886Z,33.75
2023-05-21T07:29:19.916Z,28.13
2023-05-21T07:30:19.922Z,33.75
2023-05-21T07:31:19.928Z,28.13
2023-05-21T07:32:19.897Z,33.75
2023-05-21T07:33:19.913Z,28.13
2023-05-21T07:34:19.918Z,28.13
2023-05-21T07:35:19.906Z,22.50
2023-05-21T07:36:19.885Z,28.13
2023-05-21T07:37:19.945Z,33.75
2023-05-21T07:38:19.916Z,28.13
2023-05-21T07:39:19.883Z,22.50
2023-05-21T07:40:19.882Z,22.50
2023-05-21T07:41:19.886Z,16.88
2023-05-21T07:42:20.020Z,16.88
2023-05-21T07:43:19.945Z,16.88
2023-05-21T07:44:19.871Z,16.88
2023-05-21T07:45:19.957Z,16.88
2023-05-21T07:46:19.899Z,16.88
2023-05-21T07:47:19.860Z,16.88
2023-05-21T07:48:19.872Z,22.50
2023-05-21T07:49:19.865Z,16.88
2023-05-21T07:50:19.889Z,16.88
2023-05-21T07:51:19.862Z,22.50
2023-05-21T07:52:19.936Z,28.13
2023-05-21T07:53:19.862Z,22.50
2023-05-21T07:54:19.883Z,28.13
2023-05-21T07:55:19.866Z,28.13
2023-05-21T07:56:19.875Z,33.75
2023-05-21T07:57:19.870Z,28.13
2023-05-21T07:58:19.868Z,28.13
2023-05-21T07:59:19.953Z,22.50
2023-05-21T08:00:19.853Z,22.50
2023-05-21T08:01:19.863Z,28.13
2023-05-21T08:02:19.904Z,28.13
2023-05-21T08:03:19.925Z,28.13
2023-05-21T08:04:19.903Z,28.13
2023-05-21T08:05:19.858Z,33.75
2023-05-21T08:06:19.849Z,33.75
2023-05-21T08:07:19.907Z,33.75
2023-05-21T08:08:19.869Z,39.38
2023-05-21T08:09:19.845Z,39.38
2023-05-21T08:10:19.871Z,39.38
2023-05-21T08:11:19.834Z,33.75
2023-05-21T08:12:19.833Z,39.38
2023-05-21T08:13:19.853Z,39.38
2023-05-21T08:14:19.846Z,28.13
2023-05-21T08:15:19.847Z,33.75
2023-05-21T08:16:19.836Z,33.75
2023-05-21T08:17:19.825Z,39.38
2023-05-21T08:18:19.845Z,45.00
2023-05-21T08:19:19.848Z,45.00
2023-05-21T08:20:19.841Z,56.25
2023-05-21T08:21:19.837Z,61.88
2023-05-21T08:22:19.848Z,73.13
2023-05-21T08:23:19.851Z,135.00
2023-05-21T08:24:19.818Z,168.75
2023-05-21T08:25:19.833Z,241.88
2023-05-21T08:26:19.854Z,213.75
2023-05-21T08:27:19.809Z,151.88
2023-05-21T08:28:19.808Z,106.88
2023-05-21T08:29:19.815Z,78.75
2023-05-21T08:30:19.811Z,90.00
2023-05-21T08:31:19.926Z,101.25
2023-05-21T08:32:19.824Z,101.25
2023-05-21T08:33:21.349Z,90.00
2023-05-21T08:34:19.804Z,78.75
2023-05-21T08:35:19.810Z,78.75
2023-05-21T08:36:19.805Z,61.88
2023-05-21T08:37:19.807Z,50.63
2023-05-21T08:38:19.838Z,56.25
2023-05-21T08:39:19.837Z,56.25
2023-05-21T08:40:19.802Z,73.13
2023-05-21T08:41:19.809Z,67.50
2023-05-21T08:42:32.845Z,56.25
2023-05-21T08:43:19.788Z,78.75
2023-05-21T08:44:19.822Z,90.00
2023-05-21T08:45:19.807Z,84.38
2023-05-21T08:46:19.886Z,67.50
2023-05-21T08:47:19.803Z,45.00
2023-05-21T08:48:19.806Z,45.00
2023-05-21T08:49:19.791Z,33.75
2023-05-21T08:50:19.797Z,28.13
2023-05-21T08:51:19.781Z,22.50
2023-05-21T08:52:19.775Z,22.50
2023-05-21T08:53:28.118Z,16.88
2023-05-21T08:54:19.778Z,22.50
2023-05-21T08:55:19.786Z,22.50
2023-05-21T08:56:19.815Z,16.88
2023-05-21T08:57:19.788Z,16.88
2023-05-21T08:58:19.803Z,16.88
2023-05-21T08:59:19.773Z,16.88
2023-05-21T09:00:19.795Z,16.88
2023-05-21T09:01:19.973Z,16.88
2023-05-21T09:02:19.779Z,16.88
2023-05-21T09:03:19.866Z,16.88
2023-05-21T09:04:21.788Z,11.25
2023-05-21T09:05:19.781Z,11.25
2023-05-21T09:06:19.784Z,11.25
2023-05-21T09:07:19.755Z,11.25
2023-05-21T09:08:19.792Z,11.25
2023-05-21T09:09:19.748Z,11.25
2023-05-21T09:10:19.799Z,11.25
2023-05-21T09:11:19.761Z,11.25
2023-05-21T09:12:19.751Z,11.25
2023-05-21T09:13:19.776Z,11.25
2023-05-21T09:14:19.790Z,11.25
2023-05-21T09:15:19.759Z,11.25
2023-05-21T09:16:19.815Z,11.25
2023-05-21T09:17:19.760Z,11.25
2023-05-21T09:18:19.742Z,11.25
2023-05-21T09:19:19.774Z,11.25
2023-05-21T09:20:19.801Z,16.88
2023-05-21T09:21:19.746Z,16.88
2023-05-21T09:22:19.750Z,16.88
2023-05-21T09:23:19.752Z,16.88
2023-05-21T09:24:19.727Z,16.88
2023-05-21T09:25:19.741Z,11.25
2023-05-21T09:26:19.737Z,11.25
2023-05-21T09:27:19.738Z,11.25
2023-05-21T09:28:19.754Z,11.25
2023-05-21T09:29:19.737Z,11.25
2023-05-21T09:30:35.660Z,11.25
2023-05-21T09:31:19.778Z,11.25
2023-05-21T09:32:19.716Z,11.25
2023-05-21T09:33:19.739Z,11.25
2023-05-21T09:34:19.726Z,11.25
2023-05-21T09:35:19.718Z,11.25
2023-05-21T09:36:19.803Z,11.25
2023-05-21T09:37:27.223Z,11.25
2023-05-21T09:38:19.731Z,11.25
2023-05-21T09:39:19.706Z,11.25
2023-05-21T09:40:19.809Z,11.25
2023-05-21T09:41:21.914Z,11.25
2023-05-21T09:42:19.743Z,11.25
2023-05-21T09:43:19.719Z,11.25
2023-05-21T09:44:19.701Z,11.25
2023-05-21T09:45:19.830Z,11.25
2023-05-21T09:46:19.778Z,11.25
2023-05-21T09:47:19.860Z,11.25
2023-05-21T09:48:19.718Z,11.25
2023-05-21T09:49:19.719Z,11.25
2023-05-21T09:50:19.762Z,11.25
2023-05-21T09:51:19.798Z,11.25
2023-05-21T09:52:19.760Z,11.25
2023-05-21T09:53:19.723Z,11.25
2023-05-21T09:54:19.784Z,5.63
2023-05-21T09:55:19.779Z,5.63
2023-05-21T09:56:19.789Z,5.63
2023-05-21T09:57:19.710Z,5.63
2023-05-21T09:58:19.697Z,5.63
2023-05-21T09:59:19.705Z,5.63
2023-05-21T10:00:19.678Z,5.63
2023-05-21T10:01:19.764Z,5.63
2023-05-21T10:02:19.774Z,5.63
2023-05-21T10:03:19.777Z,5.63
2023-05-21T10:04:19.748Z,5.63
2023-05-21T10:05:19.679Z,5.63
2023-05-21T10:06:19.685Z,5.63
2023-05-21T10:07:19.660Z,5.63
2023-05-21T10:08:19.670Z,5.63
2023-05-21T10:09:19.664Z,5.63
2023-05-21T10:10:19.667Z,5.63
2023-05-21T10:11:19.661Z,5.63
2023-05-21T10:12:19.670Z,5.63
2023-05-21T10:13:19.654Z,5.63
2023-05-21T10:14:19.654Z,5.63
2023-05-21T10:15:19.646Z,5.63
2023-05-21T10:16:19.733Z,5.63
2023-05-21T10:17:19.660Z,5.63
2023-05-21T10:18:19.689Z,5.63
2023-05-21T10:19:19.710Z,5.63
2023-05-21T10:20:19.634Z,5.63
2023-05-21T10:21:19.633Z,5.63
2023-05-21T10:22:19.656Z,5.63
2023-05-21T10:23:19.662Z,5.63
2023-05-21T10:24:19.655Z,5.63
2023-05-21T10:25:19.636Z,5.63
2023-05-21T10:26:19.650Z,5.63
2023-05-21T10:27:19.628Z,5.63
2023-05-21T10:28:19.628Z,5.63
2023-05-21T10:29:19.948Z,5.63
2023-05-21T10:30:19.715Z,5.63
2023-05-21T10:31:19.637Z,5.63
2023-05-21T10:32:19.760Z,5.63
2023-05-21T10:33:19.662Z,5.63
2023-05-21T10:34:19.660Z,5.63
2023-05-21T10:35:19.632Z,5.63
2023-05-21T10:36:19.636Z,5.63
2023-05-21T10:37:19.628Z,5.63
2023-05-21T10:38:19.610Z,5.63
2023-05-21T10:39:19.625Z,5.63
2023-05-21T10:40:19.620Z,5.63
2023-05-21T10:41:19.630Z,5.63
2023-05-21T10:42:19.623Z,5.63
2023-05-21T10:43:19.613Z,5.63
2023-05-21T10:44:19.636Z,5.63
2023-05-21T10:45:19.603Z,11.25
2023-05-21T10:46:19.780Z,5.63
2023-05-21T10:47:19.604Z,5.63
2023-05-21T10:48:19.659Z,5.63
2023-05-21T10:49:19.611Z,5.63
2023-05-21T10:50:19.619Z,5.63
2023-05-21T10:51:19.616Z,5.63
2023-05-21T10:52:19.597Z,5.63
2023-05-21T10:53:19.622Z,5.63
2023-05-21T10:54:19.584Z,11.25
2023-05-21T10:55:19.623Z,5.63
2023-05-21T10:56:19.604Z,5.63
2023-05-21T10:57:19.599Z,5.63
2023-05-21T10:58:19.614Z,5.63
2023-05-21T10:59:19.591Z,5.63
2023-05-21T11:00:19.583Z,5.63
2023-05-21T11:01:19.691Z,5.63
2023-05-21T11:02:19.644Z,5.63
2023-05-21T11:03:19.738Z,5.63
2023-05-21T11:04:19.578Z,5.63
2023-05-21T11:05:19.585Z,5.63
2023-05-21T11:06:19.586Z,5.63
2023-05-21T11:07:19.575Z,5.63
2023-05-21T11:08:19.595Z,5.63
2023-05-21T11:09:19.570Z,5.63
2023-05-21T11:10:19.563Z,5.63
2023-05-21T11:11:19.562Z,5.63
2023-05-21T11:12:19.567Z,5.63
2023-05-21T11:13:19.581Z,5.63
2023-05-21T11:14:20.862Z,5.63
2023-05-21T11:15:19.561Z,5.63
2023-05-21T11:16:19.609Z,5.63
2023-05-21T11:17:19.718Z,5.63
2023-05-21T11:18:19.559Z,5.63
2023-05-21T11:19:19.575Z,5.63
2023-05-21T11:20:19.573Z,5.63
2023-05-21T11:21:19.542Z,5.63
2023-05-21T11:22:19.654Z,5.63
2023-05-21T11:23:19.557Z,5.63
2023-05-21T11:24:19.560Z,5.63
2023-05-21T11:25:19.538Z,5.63
2023-05-21T11:26:19.572Z,5.63
2023-05-21T11:27:19.545Z,5.63
2023-05-21T11:28:19.544Z,5.63
2023-05-21T11:29:19.569Z,5.63
2023-05-21T11:30:19.542Z,5.63
2023-05-21T11:31:19.639Z,5.63
2023-05-21T11:32:19.541Z,5.63
2023-05-21T11:33:19.538Z,5.63
2023-05-21T11:34:19.531Z,5.63
2023-05-21T11:35:19.544Z,5.63
2023-05-21T11:36:19.534Z,5.63
2023-05-21T11:37:19.514Z,5.63
2023-05-21T11:38:19.561Z,5.63
2023-05-21T11:39:19.533Z,5.63
2023-05-21T11:40:19.542Z,5.63
2023-05-21T11:41:19.511Z,5.63
2023-05-21T11:42:19.508Z,5.63
2023-05-21T11:43:19.527Z,5.63
2023-05-21T11:44:19.523Z,5.63
2023-05-21T11:45:19.508Z,5.63
2023-05-21T11:46:19.550Z,5.63
2023-05-21T11:47:19.586Z,5.63
2023-05-21T11:48:19.513Z,5.63
2023-05-21T11:49:19.512Z,5.63
2023-05-21T11:50:19.495Z,5.63
2023-05-21T11:51:19.501Z,5.63
2023-05-21T11:52:19.509Z,5.63
2023-05-21T11:53:19.512Z,5.63
2023-05-21T11:54:19.542Z,5.63
2023-05-21T11:55:19.484Z,5.63
2023-05-21T11:57:19.712Z,5.63
2023-05-21T11:58:19.507Z,5.63
2023-05-21T11:59:19.485Z,5.63
2023-05-21T12:00:19.496Z,5.63
2023-05-21T12:01:19.494Z,5.63
2023-05-21T12:02:19.525Z,5.63
2023-05-21T12:03:19.541Z,5.63
2023-05-21T12:04:19.479Z,5.63
2023-05-21T12:05:19.482Z,5.63
2023-05-21T12:06:19.517Z,5.63
2023-05-21T12:07:19.516Z,5.63
2023-05-21T12:08:19.464Z,5.63
2023-05-21T12:09:19.505Z,5.63
2023-05-21T12:10:19.499Z,5.63
2023-05-21T12:11:19.475Z,5.63
2023-05-21T12:12:19.530Z,5.63
2023-05-21T12:13:19.476Z,5.63
2023-05-21T12:14:19.517Z,5.63
2023-05-21T12:15:19.464Z,5.63
2023-05-21T12:16:19.482Z,5.63
2023-05-21T12:17:19.497Z,5.63
2023-05-21T12:18:19.448Z,5.63
2023-05-21T12:19:19.504Z,5.63
2023-05-21T12:20:19.448Z,5.63
2023-05-21T12:21:19.445Z,5.63
2023-05-21T12:22:19.457Z,5.63
2023-05-21T12:23:19.479Z,5.63
2023-05-21T12:24:19.450Z,5.63
2023-05-21T12:25:19.476Z,5.63
2023-05-21T12:26:19.472Z,5.63
2023-05-21T12:27:19.453Z,5.63
2023-05-21T12:28:19.442Z,5.63
2023-05-21T12:29:19.447Z,5.63
2023-05-21T12:30:19.439Z,5.63
2023-05-21T12:31:19.475Z,5.63
2023-05-21T12:32:19.485Z,5.63
2023-05-21T12:33:19.433Z,5.63
2023-05-21T12:34:19.427Z,5.63
2023-05-21T12:35:19.467Z,5.63
2023-05-21T12:36:19.435Z,5.63
2023-05-21T12:37:19.419Z,5.63
2023-05-21T12:38:19.435Z,5.63
2023-05-21T12:39:19.436Z,5.63
2023-05-21T12:40:19.420Z,5.63
2023-05-21T12:41:19.425Z,5.63
2023-05-21T12:42:19.428Z,5.63
2023-05-21T12:43:19.408Z,5.63
2023-05-21T12:44:19.407Z,5.63
2023-05-21T12:45:19.425Z,5.63
2023-05-21T12:46:19.462Z,5.63
2023-05-21T12:47:19.428Z,5.63
2023-05-21T12:48:19.434Z,5.63
2023-05-21T12:49:19.436Z,5.63
2023-05-21T12:50:19.403Z,5.63
2023-05-21T12:51:19.423Z,5.63
2023-05-21T12:52:19.410Z,5.63
2023-05-21T12:53:19.405Z,5.63
2023-05-21T12:54:19.413Z,5.63
2023-05-21T12:55:19.414Z,5.63
2023-05-21T12:56:19.392Z,5.63
2023-05-21T12:57:19.397Z,5.63
2023-05-21T12:58:19.406Z,5.63
2023-05-21T12:59:19.404Z,5.63
2023-05-21T13:00:19.409Z,5.63
2023-05-21T13:01:19.454Z,5.63
2023-05-21T13:02:19.399Z,5.63
2023-05-21T13:03:19.461Z,5.63
2023-05-21T13:04:19.444Z,5.63
2023-05-21T13:05:19.430Z,5.63
2023-05-21T13:06:19.381Z,5.63
2023-05-21T13:07:19.388Z,5.63
2023-05-21T13:08:19.372Z,5.63
2023-05-21T13:09:19.373Z,5.63
2023-05-21T13:10:19.478Z,5.63
2023-05-21T13:11:19.390Z,5.63
2023-05-21T13:12:19.368Z,5.63